LFMT/MPL METAR and TAF weather

Enter ICAO airport designator
Station Type Date Time Source
LFMT METAR 2021/08/01 17:00 UTC NOAA

LFMT 011700Z AUTO 30016KT CAVOK 27/08 Q1012 TEMPO 30020G30KT


Station Type Date Time Source
LFMT Decoded METAR 2021/08/01 17:00 UTC NOAA

Montpellier, France (LFMT) 43-35N 003-58E 6M
Aug 01, 2021 - 01:00 PM EDT / 2021.08.01 1700 UTC
Wind: from the WNW (300 degrees) at 18 MPH (16 KT):0
Visibility: greater than 7 mile(s):0
Temperature: 80 F (27 C)
Dew Point: 46 F (8 C)
Relative Humidity: 30%
Pressure (altimeter): 29.88 in. Hg (1012 hPa)
ob: LFMT 011700Z AUTO 30016KT CAVOK 27/08 Q1012 TEMPO 30020G30KT
cycle: 17

Station Type Date Time Source
LFMT TAF 2021/08/01 15:46 UTC NOAA

TAF LFMT 011400Z 0115/0215 30013KT CAVOK
TEMPO 0115/0118 30020G30KT
BECMG 0205/0207 VRB03KT
BECMG 0209/0211 16010KT

Example: see airport list